Time;durP1;ratioP1;P1;durP2;ratioP2;P2;SDS_P1;SDS_P2;PMS_P1;PMS_P2;Temp;Humidity;BMP_temperature;BMP_pressure;BME280_temperature;BME280_humidity;BME280_pressure;Samples;Min_cycle;Max_cycle;Signal;HPM_P1;HPM_P2
2023/07/30 00:01:24;;;;;;;13.27;3.40;;;16.40;99.90;;;;;;4977545;28;20495;-86
2023/07/30 00:03:50;;;;;;;13.40;6.20;;;16.30;99.90;;;;;;4993913;28;20042;-86
2023/07/30 00:06:16;;;;;;;11.82;3.25;;;16.30;99.90;;;;;;4993996;28;20034;-86
2023/07/30 00:08:41;;;;;;;14.50;6.05;;;16.30;99.90;;;;;;4993977;28;20707;-86
2023/07/30 00:11:07;;;;;;;14.73;6.32;;;16.30;99.90;;;;;;4993726;28;20045;-86
2023/07/30 00:13:32;;;;;;;13.35;5.70;;;16.30;99.90;;;;;;4993621;28;20091;-86
2023/07/30 00:15:58;;;;;;;14.55;6.25;;;16.30;99.90;;;;;;4977040;28;20399;-86
2023/07/30 00:18:23;;;;;;;12.88;5.85;;;16.30;99.90;;;;;;4993687;28;20176;-86
2023/07/30 00:20:49;;;;;;;13.15;4.15;;;16.30;99.90;;;;;;4994007;28;20038;-86
2023/07/30 00:23:15;;;;;;;9.30;3.75;;;16.20;99.90;;;;;;4993644;28;20465;-86
2023/07/30 00:25:40;;;;;;;15.63;5.68;;;16.10;99.90;;;;;;4977511;28;20038;-86
2023/07/30 00:28:06;;;;;;;14.43;5.90;;;16.10;99.90;;;;;;4977501;28;20129;-86
2023/07/30 00:30:31;;;;;;;14.00;5.78;;;16.10;99.90;;;;;;4977626;28;20128;-86
2023/07/30 00:32:57;;;;;;;12.23;3.47;;;16.10;99.90;;;;;;4993924;28;20045;-86
2023/07/30 00:35:23;;;;;;;12.23;3.85;;;16.00;99.90;;;;;;4977058;28;20403;-86
2023/07/30 00:37:48;;;;;;;12.73;5.63;;;16.00;99.90;;;;;;4993047;28;20518;-86
2023/07/30 00:40:14;;;;;;;9.43;3.20;;;16.00;99.90;;;;;;4993314;28;20137;-86
2023/07/30 00:42:39;;;;;;;14.63;5.40;;;15.90;99.90;;;;;;4993135;28;20037;-86
2023/07/30 00:45:05;;;;;;;12.32;5.72;;;15.90;99.90;;;;;;4993016;28;20407;-86
2023/07/30 00:47:31;;;;;;;10.55;3.40;;;15.90;99.90;;;;;;4977109;28;20045;-86
2023/07/30 00:49:57;;;;;;;11.13;3.25;;;15.80;99.90;;;;;;4977758;28;20045;-86
2023/07/30 00:52:24;;;;;;;13.82;5.15;;;15.80;99.90;;;;;;4977242;28;20042;-86
2023/07/30 00:54:51;;;;;;;14.80;5.40;;;15.80;99.90;;;;;;4993257;28;20041;-86
2023/07/30 00:57:19;;;;;;;7.60;2.47;;;15.80;99.90;;;;;;4992421;28;20057;-86
2023/07/30 00:59:45;;;;;;;10.85;3.20;;;15.70;99.90;;;;;;4976839;28;20647;-86
2023/07/30 01:02:11;;;;;;;15.32;3.13;;;15.60;99.90;;;;;;4993145;28;20557;-86
2023/07/30 01:04:39;;;;;;;13.50;5.13;;;15.60;99.90;;;;;;4993247;28;20447;-86
2023/07/30 01:07:05;;;;;;;9.70;3.13;;;15.60;99.90;;;;;;4992975;28;20112;-86
2023/07/30 01:09:31;;;;;;;10.95;5.32;;;15.60;99.90;;;;;;4993536;28;20519;-86
2023/07/30 01:11:59;;;;;;;14.38;5.30;;;15.60;99.90;;;;;;4993330;28;20038;-86
2023/07/30 01:14:26;;;;;;;12.90;4.72;;;15.60;99.90;;;;;;5010961;28;20419;-86
2023/07/30 01:16:52;;;;;;;15.25;5.55;;;15.60;99.90;;;;;;4976754;28;20038;-86
2023/07/30 01:19:18;;;;;;;14.95;5.57;;;15.60;99.90;;;;;;4976837;28;20498;-86
2023/07/30 01:21:44;;;;;;;9.65;2.63;;;15.60;99.90;;;;;;4977231;28;20057;-86
2023/07/30 01:24:09;;;;;;;13.07;2.90;;;15.60;99.90;;;;;;4996635;28;20030;-85
2023/07/30 01:26:51;;;;;;;12.35;3.55;;;15.50;99.90;;;;;;4997154;28;20576;-86
2023/07/30 01:29:22;;;;;;;13.57;5.72;;;15.40;99.90;;;;;;4996826;28;20079;-87
2023/07/30 01:31:54;;;;;;;12.60;3.10;;;15.50;99.90;;;;;;4980525;28;20042;-87
2023/07/30 01:34:22;;;;;;;13.75;5.20;;;15.40;99.90;;;;;;4980503;28;20050;-86
2023/07/30 01:36:49;;;;;;;15.02;5.20;;;15.40;99.90;;;;;;4996149;28;20050;-86
2023/07/30 01:39:16;;;;;;;13.40;5.40;;;15.40;99.90;;;;;;4996531;28;20112;-86
2023/07/30 01:41:41;;;;;;;14.65;5.30;;;15.40;99.90;;;;;;4980381;28;20149;-86
2023/07/30 01:44:07;;;;;;;8.05;2.38;;;15.50;99.90;;;;;;4980505;28;20141;-86
2023/07/30 01:46:33;;;;;;;16.05;2.95;;;15.40;99.90;;;;;;4980034;28;20037;-86
2023/07/30 01:48:58;;;;;;;14.05;4.47;;;15.30;99.90;;;;;;4996497;28;20092;-86
2023/07/30 01:51:24;;;;;;;10.93;3.40;;;15.30;99.90;;;;;;4996220;28;20084;-86
2023/07/30 01:53:49;;;;;;;17.55;4.97;;;15.30;99.90;;;;;;4980669;28;20125;-86
2023/07/30 01:56:15;;;;;;;16.75;5.13;;;15.30;99.90;;;;;;4996229;28;20038;-86
2023/07/30 01:58:40;;;;;;;9.00;3.00;;;15.30;99.90;;;;;;4979521;28;20584;-86
2023/07/30 02:01:06;;;;;;;9.00;2.63;;;15.30;99.90;;;;;;4995886;28;20124;-86
2023/07/30 02:03:31;;;;;;;15.40;5.13;;;15.20;99.90;;;;;;4996169;28;20037;-86
2023/07/30 02:05:57;;;;;;;14.18;4.60;;;15.20;99.90;;;;;;4979894;28;20041;-86
2023/07/30 02:08:22;;;;;;;10.70;3.33;;;15.30;99.90;;;;;;4995806;28;20095;-86
2023/07/30 02:10:58;;;;;;;11.65;4.35;;;15.30;99.90;;;;;;4996173;28;20169;-86
2023/07/30 02:13:25;;;;;;;6.03;2.00;;;15.20;99.90;;;;;;4979768;28;20049;-86
2023/07/30 02:15:51;;;;;;;9.65;2.58;;;15.20;99.90;;;;;;4995701;28;20046;-85
2023/07/30 02:18:17;;;;;;;13.02;4.47;;;15.20;99.90;;;;;;4995284;28;20042;-86
2023/07/30 02:20:42;;;;;;;14.73;4.43;;;15.20;99.90;;;;;;4979298;28;20038;-86
2023/07/30 02:23:08;;;;;;;10.73;2.33;;;15.20;99.90;;;;;;4996076;28;20034;-86
2023/07/30 02:25:34;;;;;;;14.73;4.13;;;15.20;99.90;;;;;;4996179;28;20567;-86
2023/07/30 02:28:01;;;;;;;13.80;4.68;;;15.10;99.90;;;;;;4979175;28;20052;-86
2023/07/30 02:30:27;;;;;;;8.68;2.30;;;15.20;99.90;;;;;;4979933;28;20168;-86
2023/07/30 02:32:53;;;;;;;8.25;2.20;;;15.10;99.90;;;;;;4995820;28;20075;-86
2023/07/30 02:35:18;;;;;;;10.27;2.55;;;15.00;99.90;;;;;;5013186;28;20045;-86
2023/07/30 02:37:44;;;;;;;14.68;4.63;;;15.00;99.90;;;;;;4995306;28;20037;-85
2023/07/30 02:40:10;;;;;;;11.80;4.60;;;15.00;99.90;;;;;;4995138;28;20754;-85
2023/07/30 02:42:36;;;;;;;10.98;2.55;;;15.10;99.90;;;;;;4995472;28;20085;-86
2023/07/30 02:45:01;;;;;;;13.70;2.08;;;15.00;99.90;;;;;;5012993;28;20038;-85
2023/07/30 02:47:27;;;;;;;10.30;2.75;;;15.00;99.90;;;;;;4978988;28;20593;-85
2023/07/30 02:49:52;;;;;;;12.30;2.80;;;14.90;99.90;;;;;;4995571;28;20563;-86
2023/07/30 02:52:18;;;;;;;11.68;4.00;;;14.90;99.90;;;;;;4995467;28;20409;-85
2023/07/30 02:54:44;;;;;;;10.20;2.58;;;14.90;99.90;;;;;;4995438;28;20503;-85
2023/07/30 02:57:10;;;;;;;8.70;1.92;;;14.90;99.90;;;;;;4994041;28;20052;-86
2023/07/30 02:59:37;;;;;;;7.97;2.28;;;14.80;99.90;;;;;;4995013;28;20085;-85
2023/07/30 03:02:04;;;;;;;12.65;4.15;;;14.80;99.90;;;;;;4995016;28;20125;-86
2023/07/30 03:04:31;;;;;;;13.32;4.45;;;14.80;99.90;;;;;;4979387;28;20441;-86
2023/07/30 03:06:56;;;;;;;13.65;4.75;;;14.90;99.90;;;;;;4997542;28;20042;-85
2023/07/30 03:09:22;;;;;;;9.27;2.30;;;14.90;99.90;;;;;;4999795;28;20068;-85
2023/07/30 03:11:49;;;;;;;11.70;4.03;;;14.80;99.90;;;;;;4994963;28;20049;-86
2023/07/30 03:14:14;;;;;;;11.52;3.20;;;14.90;99.90;;;;;;4995477;28;20049;-85
2023/07/30 03:16:40;;;;;;;11.95;4.60;;;14.80;99.90;;;;;;4995130;28;20038;-85
2023/07/30 03:19:05;;;;;;;13.18;5.13;;;14.80;99.90;;;;;;4995332;28;20038;-85
2023/07/30 03:21:31;;;;;;;9.57;2.38;;;14.80;99.90;;;;;;4995342;28;20034;-85
2023/07/30 03:23:57;;;;;;;13.18;5.10;;;14.80;99.90;;;;;;4995277;28;20038;-87
2023/07/30 03:26:22;;;;;;;15.93;3.55;;;14.80;99.90;;;;;;4994224;28;20041;-85
2023/07/30 03:28:48;;;;;;;13.30;5.07;;;14.80;99.90;;;;;;4994578;28;20045;-85
2023/07/30 03:31:13;;;;;;;8.90;2.33;;;14.80;99.90;;;;;;4994775;28;20049;-86
2023/07/30 03:33:43;;;;;;;11.82;2.88;;;14.70;99.90;;;;;;4994491;28;20045;-86
2023/07/30 03:36:15;;;;;;;11.38;3.33;;;14.60;99.90;;;;;;4994014;28;20096;-86
2023/07/30 03:38:41;;;;;;;8.03;2.67;;;14.60;99.90;;;;;;4978104;28;20045;-86
2023/07/30 03:41:07;;;;;;;14.05;5.70;;;14.60;99.90;;;;;;4994217;28;20081;-86
2023/07/30 03:43:34;;;;;;;15.88;6.10;;;14.60;99.90;;;;;;4978629;28;20070;-88
2023/07/30 03:45:59;;;;;;;8.18;2.83;;;14.70;99.90;;;;;;4977925;28;20523;-85
2023/07/30 03:48:25;;;;;;;11.35;3.13;;;14.60;99.90;;;;;;4994014;28;20103;-86
2023/07/30 03:50:52;;;;;;;11.45;5.53;;;14.60;99.90;;;;;;4977744;28;20120;-85
2023/07/30 03:53:18;;;;;;;8.77;3.13;;;14.60;99.90;;;;;;4977419;28;20466;-86
2023/07/30 03:55:43;;;;;;;12.38;3.28;;;14.60;99.90;;;;;;4993536;28;20046;-87
2023/07/30 03:58:09;;;;;;;14.07;5.45;;;14.60;99.90;;;;;;4993143;28;20065;-87
2023/07/30 04:00:35;;;;;;;10.93;3.45;;;14.60;99.90;;;;;;4994343;28;20042;-86
2023/07/30 04:03:00;;;;;;;13.75;5.63;;;14.70;99.90;;;;;;4994190;28;20045;-86
2023/07/30 04:05:26;;;;;;;9.45;2.75;;;14.70;99.90;;;;;;4993594;28;20112;-86
2023/07/30 04:07:51;;;;;;;13.45;3.10;;;14.70;99.90;;;;;;4994145;28;20103;-86
2023/07/30 04:10:17;;;;;;;13.38;5.80;;;14.60;99.90;;;;;;4993767;28;20041;-85
2023/07/30 04:12:42;;;;;;;15.60;6.22;;;14.70;99.90;;;;;;4993962;28;20418;-86
2023/07/30 04:15:08;;;;;;;15.88;6.43;;;14.70;99.90;;;;;;4993935;28;20037;-86
2023/07/30 04:17:37;;;;;;;12.50;3.38;;;14.70;99.90;;;;;;4976724;28;20049;-85
2023/07/30 04:20:04;;;;;;;15.65;6.60;;;14.70;99.90;;;;;;4977580;28;20065;-86
2023/07/30 04:22:30;;;;;;;9.55;2.65;;;14.70;99.90;;;;;;4993977;28;20045;-85
2023/07/30 04:24:55;;;;;;;9.05;3.15;;;14.70;99.90;;;;;;4993869;28;20133;-86
2023/07/30 04:27:21;;;;;;;11.38;3.55;;;14.70;99.90;;;;;;4993649;28;20044;-86
2023/07/30 04:29:46;;;;;;;18.38;6.28;;;14.70;99.90;;;;;;4993570;28;20042;-86
2023/07/30 04:32:12;;;;;;;11.23;3.38;;;14.70;99.90;;;;;;4993761;28;20121;-87
2023/07/30 04:34:38;;;;;;;14.85;6.13;;;14.70;99.90;;;;;;4977472;28;20065;-86
2023/07/30 04:37:04;;;;;;;14.85;6.10;;;14.80;99.90;;;;;;4993049;28;20030;-87
2023/07/30 04:39:32;;;;;;;11.07;3.20;;;14.80;99.90;;;;;;4976764;28;20414;-86
2023/07/30 04:41:57;;;;;;;11.07;2.70;;;14.80;99.90;;;;;;4977495;28;20514;-86
2023/07/30 04:44:23;;;;;;;10.60;4.40;;;14.80;99.90;;;;;;4993616;28;20038;-86
2023/07/30 04:46:49;;;;;;;16.67;6.53;;;14.80;99.90;;;;;;4993664;28;20120;-85
2023/07/30 04:49:14;;;;;;;15.93;6.45;;;14.80;99.90;;;;;;4993641;28;20056;-86
2023/07/30 04:51:40;;;;;;;11.38;2.60;;;14.90;99.90;;;;;;4992299;28;20545;-85
2023/07/30 04:54:05;;;;;;;15.27;6.15;;;14.90;99.90;;;;;;4993324;28;20053;-86
2023/07/30 04:56:31;;;;;;;13.35;3.47;;;15.00;99.90;;;;;;4993929;28;20038;-86
2023/07/30 04:58:57;;;;;;;14.93;6.07;;;14.90;99.90;;;;;;4996977;28;20096;-86
2023/07/30 05:01:24;;;;;;;7.18;2.45;;;15.00;99.90;;;;;;4997097;28;20530;-86
2023/07/30 05:03:49;;;;;;;14.07;4.03;;;15.00;99.90;;;;;;4997728;28;20049;-86
2023/07/30 05:06:15;;;;;;;16.17;6.07;;;15.00;99.90;;;;;;4997104;28;20034;-85
2023/07/30 05:08:40;;;;;;;16.65;6.80;;;15.00;99.90;;;;;;4997730;28;20414;-86
2023/07/30 05:11:06;;;;;;;20.25;6.22;;;15.10;99.90;;;;;;4980952;28;20606;-86
2023/07/30 05:13:32;;;;;;;11.13;3.95;;;15.20;99.90;;;;;;4997673;28;20077;-87
2023/07/30 05:15:57;;;;;;;12.25;3.25;;;15.10;99.90;;;;;;4981022;28;20530;-87
2023/07/30 05:18:23;;;;;;;16.30;6.00;;;15.10;99.90;;;;;;4996755;28;20454;-87
2023/07/30 05:20:48;;;;;;;17.77;7.15;;;15.20;99.90;;;;;;4997229;28;20148;-87
2023/07/30 05:23:15;;;;;;;11.85;3.35;;;15.30;99.90;;;;;;4981109;28;20462;-87
2023/07/30 05:25:40;;;;;;;18.70;6.28;;;15.20;99.90;;;;;;4980948;28;20044;-86
2023/07/30 05:28:06;;;;;;;12.52;3.38;;;15.30;99.90;;;;;;4997312;28;20037;-86
2023/07/30 05:30:31;;;;;;;16.35;6.65;;;15.20;99.90;;;;;;4996668;28;20084;-85
2023/07/30 05:32:57;;;;;;;12.05;3.45;;;15.30;99.90;;;;;;4996657;28;20533;-85
2023/07/30 05:35:23;;;;;;;14.40;3.58;;;15.30;99.90;;;;;;4997423;28;20411;-85
2023/07/30 05:37:48;;;;;;;17.98;6.68;;;15.30;99.90;;;;;;4995227;28;20048;-85
2023/07/30 05:40:14;;;;;;;19.02;7.10;;;15.30;99.90;;;;;;4996098;28;20034;-86
2023/07/30 05:42:39;;;;;;;16.63;6.72;;;15.40;99.90;;;;;;4996098;28;20038;-86
2023/07/30 05:45:06;;;;;;;16.30;3.75;;;15.50;99.90;;;;;;4996096;28;20038;-86
2023/07/30 05:47:34;;;;;;;17.00;6.57;;;15.40;99.90;;;;;;4979343;28;20045;-86
2023/07/30 05:50:00;;;;;;;11.75;3.35;;;15.50;99.90;;;;;;4996255;28;20042;-87
2023/07/30 05:52:25;;;;;;;17.55;6.72;;;15.50;99.90;;;;;;4996521;28;20036;-86
2023/07/30 05:54:51;;;;;;;14.07;4.38;;;15.50;99.90;;;;;;4996360;28;20120;-86
2023/07/30 05:57:16;;;;;;;15.00;3.63;;;15.60;99.90;;;;;;4995941;28;20053;-86
2023/07/30 05:59:42;;;;;;;19.67;7.32;;;15.60;99.90;;;;;;4996452;28;20525;-86
2023/07/30 06:02:07;;;;;;;20.77;6.97;;;15.60;99.90;;;;;;4995695;28;20052;-86
2023/07/30 06:04:33;;;;;;;20.73;7.57;;;15.70;99.90;;;;;;4995931;28;20425;-86
2023/07/30 06:07:05;;;;;;;13.88;4.45;;;15.80;99.90;;;;;;4995539;28;20038;-86
2023/07/30 06:09:30;;;;;;;17.63;4.00;;;15.80;99.90;;;;;;4995563;28;20034;-87
2023/07/30 06:11:59;;;;;;;18.42;7.70;;;15.70;99.90;;;;;;4979622;28;20579;-87
2023/07/30 06:14:25;;;;;;;13.93;4.05;;;15.80;99.90;;;;;;4995964;28;20088;-87
2023/07/30 06:16:52;;;;;;;21.95;8.73;;;15.80;99.90;;;;;;4995512;28;20038;-87
2023/07/30 06:19:17;;;;;;;23.20;9.10;;;15.90;99.90;;;;;;4995468;28;20597;-86
2023/07/30 06:21:43;;;;;;;15.57;4.53;;;15.90;99.90;;;;;;4995338;28;20160;-86
2023/07/30 06:24:09;;;;;;;23.27;8.30;;;16.00;99.90;;;;;;4979447;28;20049;-86
2023/07/30 06:26:34;;;;;;;19.65;4.45;;;16.00;99.90;;;;;;4995432;28;20125;-86
2023/07/30 06:29:00;;;;;;;14.90;4.90;;;16.00;99.90;;;;;;4995318;28;20144;-87
2023/07/30 06:31:25;;;;;;;19.13;7.85;;;16.10;99.90;;;;;;4979847;28;20064;-86
2023/07/30 06:33:51;;;;;;;17.38;5.22;;;16.20;99.90;;;;;;4979193;28;20521;-86
2023/07/30 06:36:17;;;;;;;18.33;5.35;;;16.30;99.90;;;;;;4979413;28;20041;-87
2023/07/30 06:38:42;;;;;;;21.40;8.88;;;16.30;99.90;;;;;;4995319;28;20046;-87
2023/07/30 06:41:08;;;;;;;25.45;8.10;;;16.40;99.90;;;;;;4979401;28;20118;-86
2023/07/30 06:43:34;;;;;;;19.52;8.45;;;16.40;99.90;;;;;;4979146;28;20042;-86
2023/07/30 06:46:00;;;;;;;17.42;4.68;;;16.50;99.90;;;;;;4995085;28;20048;-86
2023/07/30 06:48:25;;;;;;;12.63;3.65;;;16.50;99.90;;;;;;4974758;28;20108;-87
2023/07/30 06:50:51;;;;;;;23.35;8.85;;;16.50;99.90;;;;;;4969590;28;20038;-86
2023/07/30 06:53:16;;;;;;;23.60;8.68;;;16.50;99.90;;;;;;4966683;28;20149;-86
2023/07/30 06:55:42;;;;;;;18.08;5.20;;;16.60;99.90;;;;;;4975841;28;20038;-86
2023/07/30 06:58:08;;;;;;;22.05;8.23;;;16.70;99.90;;;;;;4969742;28;20046;-87
2023/07/30 07:00:33;;;;;;;21.80;7.57;;;16.70;99.90;;;;;;4994893;28;20033;-86
2023/07/30 07:02:59;;;;;;;23.45;8.38;;;16.80;99.90;;;;;;4978842;28;20104;-86
2023/07/30 07:05:24;;;;;;;22.40;8.73;;;16.80;99.90;;;;;;4994880;28;20042;-87
2023/07/30 07:07:50;;;;;;;23.60;7.90;;;16.90;99.90;;;;;;4978559;28;20049;-86
2023/07/30 07:10:16;;;;;;;16.52;4.82;;;17.00;99.90;;;;;;4995145;28;20038;-86
2023/07/30 07:12:41;;;;;;;22.73;8.27;;;17.00;99.90;;;;;;4994879;28;20564;-86
2023/07/30 07:15:07;;;;;;;23.30;9.35;;;17.20;99.90;;;;;;4986621;28;20042;-86
2023/07/30 07:17:33;;;;;;;19.05;7.45;;;17.30;99.90;;;;;;4958863;28;20042;-86
2023/07/30 07:19:59;;;;;;;22.02;8.85;;;17.30;99.90;;;;;;4974877;28;20042;-86
2023/07/30 07:22:24;;;;;;;25.45;8.77;;;17.40;99.90;;;;;;4958875;28;20042;-86
2023/07/30 07:24:53;;;;;;;18.95;8.18;;;17.40;99.90;;;;;;4975561;28;20117;-86
2023/07/30 07:27:27;;;;;;;22.65;7.60;;;17.50;99.90;;;;;;4974459;28;20034;-86
2023/07/30 07:29:54;;;;;;;18.15;4.65;;;17.50;99.90;;;;;;4958501;28;20042;-87
2023/07/30 07:32:19;;;;;;;17.63;7.68;;;17.50;99.90;;;;;;4974557;28;20048;-87
2023/07/30 07:34:49;;;;;;;22.27;7.65;;;17.50;99.90;;;;;;4975854;28;20586;-87
2023/07/30 07:37:16;;;;;;;15.45;5.85;;;17.60;99.90;;;;;;5011260;28;20141;-86
2023/07/30 07:39:43;;;;;;;19.42;7.75;;;17.60;99.90;;;;;;4993850;28;20045;-86
2023/07/30 07:42:09;;;;;;;18.60;7.47;;;17.60;99.90;;;;;;4977616;28;20576;-86
2023/07/30 07:44:34;;;;;;;21.38;8.13;;;17.60;99.90;;;;;;4977986;28;20042;-86
2023/07/30 07:47:00;;;;;;;18.92;7.20;;;17.60;99.90;;;;;;4993216;28;20486;-87
2023/07/30 07:49:25;;;;;;;14.70;4.95;;;17.60;99.90;;;;;;4987896;28;20156;-87
2023/07/30 07:51:51;;;;;;;19.80;7.20;;;17.60;99.90;;;;;;4983765;28;20042;-87
2023/07/30 07:54:16;;;;;;;16.83;6.90;;;17.60;99.90;;;;;;4971554;28;20107;-87
2023/07/30 07:56:42;;;;;;;20.85;7.70;;;17.70;99.90;;;;;;4977039;28;20041;-87
2023/07/30 07:59:08;;;;;;;18.60;7.40;;;17.70;99.90;;;;;;4992689;28;20175;-87
2023/07/30 08:01:33;;;;;;;20.27;6.60;;;17.90;99.90;;;;;;4975601;28;20044;-88
2023/07/30 08:03:59;;;;;;;18.98;6.55;;;18.00;99.90;;;;;;4966674;28;20530;-87
2023/07/30 08:06:24;;;;;;;18.48;6.22;;;18.20;99.90;;;;;;4979001;28;20038;-88
2023/07/30 08:08:50;;;;;;;19.88;5.72;;;18.30;99.90;;;;;;4986205;28;20120;-87
2023/07/30 08:11:16;;;;;;;17.33;6.03;;;18.40;99.90;;;;;;4983836;28;20140;-88
2023/07/30 08:13:42;;;;;;;17.75;6.60;;;18.40;99.90;;;;;;4981904;28;20084;-87
2023/07/30 08:16:07;;;;;;;21.02;6.78;;;18.40;99.90;;;;;;4966169;28;20092;-88
2023/07/30 08:18:33;;;;;;;17.52;6.80;;;18.40;99.90;;;;;;4967164;28;20047;-88
2023/07/30 08:21:00;;;;;;;21.20;7.28;;;18.50;99.90;;;;;;4975313;28;20040;-88
2023/07/30 08:23:25;;;;;;;18.75;7.00;;;18.50;99.90;;;;;;4985288;28;20042;-87
2023/07/30 08:25:51;;;;;;;21.50;7.55;;;18.50;99.90;;;;;;4987714;28;20073;-88
2023/07/30 08:28:17;;;;;;;21.23;6.80;;;18.70;99.90;;;;;;4981526;28;20041;-87
2023/07/30 08:30:45;;;;;;;19.83;7.60;;;18.80;99.90;;;;;;4984179;28;20112;-87
2023/07/30 08:33:10;;;;;;;17.02;6.45;;;18.90;99.90;;;;;;4999905;28;20094;-88
2023/07/30 08:35:36;;;;;;;19.00;6.32;;;19.00;99.90;;;;;;4967901;28;20038;-87
2023/07/30 08:38:01;;;;;;;17.50;5.88;;;19.10;99.90;;;;;;4981587;28;20092;-87
2023/07/30 08:40:27;;;;;;;18.50;6.15;;;19.10;99.90;;;;;;4982928;28;20077;-87
2023/07/30 08:42:53;;;;;;;18.98;6.18;;;19.10;99.90;;;;;;4981182;28;20117;-88
2023/07/30 08:45:19;;;;;;;15.95;5.88;;;19.20;99.90;;;;;;4979800;28;20050;-88
2023/07/30 08:47:46;;;;;;;18.05;5.30;;;19.20;99.90;;;;;;4974305;28;20042;-88
2023/07/30 08:50:12;;;;;;;20.98;6.15;;;19.30;99.90;;;;;;4973714;28;20045;-87
2023/07/30 08:52:39;;;;;;;16.10;4.97;;;19.30;99.90;;;;;;4962290;28;20431;-87
2023/07/30 08:55:05;;;;;;;15.77;4.93;;;19.40;99.90;;;;;;4974109;28;20058;-87
2023/07/30 08:57:32;;;;;;;17.63;5.60;;;19.30;99.90;;;;;;4973242;28;20043;-87
2023/07/30 09:00:11;;;;;;;18.20;5.90;;;19.30;99.90;;;;;;4973582;28;20053;-87
2023/07/30 09:02:47;;;;;;;19.17;6.68;;;19.30;99.90;;;;;;4974018;28;20038;-87
2023/07/30 09:05:13;;;;;;;16.67;6.20;;;19.30;99.90;;;;;;4981751;28;20072;-87
2023/07/30 09:07:39;;;;;;;16.23;6.03;;;19.30;99.90;;;;;;5001471;28;20391;-87
2023/07/30 09:10:05;;;;;;;15.07;5.78;;;19.30;99.90;;;;;;4986086;28;20033;-87
2023/07/30 09:12:32;;;;;;;16.92;5.95;;;19.30;99.90;;;;;;4976206;28;20034;-87
2023/07/30 09:14:58;;;;;;;17.10;6.53;;;19.30;99.90;;;;;;4976077;28;20044;-87
2023/07/30 09:17:25;;;;;;;15.63;5.55;;;19.20;99.90;;;;;;4991506;28;20124;-87
2023/07/30 09:19:51;;;;;;;17.48;6.28;;;19.30;99.90;;;;;;4992088;28;20041;-87
2023/07/30 09:22:33;;;;;;;16.75;6.32;;;19.30;99.90;;;;;;4975658;28;20042;-87
2023/07/30 09:25:02;;;;;;;14.18;6.15;;;19.30;99.90;;;;;;4992616;28;20402;-87
2023/07/30 09:27:29;;;;;;;14.10;5.70;;;19.30;99.90;;;;;;4982002;28;20483;-87
2023/07/30 09:29:59;;;;;;;15.07;5.45;;;19.30;99.90;;;;;;4973823;28;20093;-87
2023/07/30 09:32:27;;;;;;;15.18;5.88;;;19.30;99.90;;;;;;4973487;28;20030;-87
2023/07/30 09:34:52;;;;;;;16.45;6.03;;;19.40;99.90;;;;;;4957767;28;20035;-87
2023/07/30 09:37:18;;;;;;;14.85;6.45;;;19.30;99.90;;;;;;4957423;28;20034;-87
2023/07/30 09:39:47;;;;;;;16.05;4.95;;;19.30;99.90;;;;;;4957428;28;20054;-87
2023/07/30 09:42:12;;;;;;;15.73;5.57;;;19.10;99.90;;;;;;4963784;28;20080;-87
2023/07/30 09:44:39;;;;;;;17.08;5.13;;;19.10;99.90;;;;;;4995025;28;20038;-86
2023/07/30 09:47:09;;;;;;;13.65;4.38;;;19.00;99.90;;;;;;4979017;28;20557;-86
2023/07/30 09:49:38;;;;;;;14.93;5.32;;;18.90;99.90;;;;;;4993449;28;20037;-86
2023/07/30 09:52:07;;;;;;;17.58;6.32;;;18.80;99.90;;;;;;4980079;28;20049;-86
2023/07/30 09:54:33;;;;;;;14.55;6.03;;;18.80;99.90;;;;;;5012478;28;20494;-87
2023/07/30 09:56:59;;;;;;;18.65;6.45;;;18.70;99.90;;;;;;4995252;28;20048;-86
2023/07/30 09:59:24;;;;;;;17.48;6.50;;;18.70;99.90;;;;;;4995836;28;20044;-87
2023/07/30 10:01:55;;;;;;;15.27;6.00;;;18.70;99.90;;;;;;4996390;28;20033;-87
2023/07/30 10:04:22;;;;;;;17.33;5.05;;;18.60;99.90;;;;;;4996048;28;20038;-87
2023/07/30 10:07:00;;;;;;;15.05;4.63;;;18.50;99.90;;;;;;4979434;28;20411;-87
2023/07/30 10:09:30;;;;;;;12.80;3.90;;;18.40;99.90;;;;;;4996265;28;20037;-87
2023/07/30 10:11:56;;;;;;;11.13;3.90;;;18.30;99.90;;;;;;5010598;28;20038;-86
2023/07/30 10:14:24;;;;;;;11.98;3.65;;;18.30;99.90;;;;;;4979141;28;20129;-87
2023/07/30 10:16:55;;;;;;;12.80;4.28;;;18.40;99.90;;;;;;4995343;28;20077;-87
2023/07/30 10:19:26;;;;;;;11.43;3.70;;;18.50;99.90;;;;;;4979416;28;20552;-86
2023/07/30 10:22:20;;;;;;;12.90;3.10;;;18.80;99.90;;;;;;4979566;28;20060;-86
2023/07/30 10:25:06;;;;;;;12.32;3.40;;;19.10;99.90;;;;;;4995256;28;20038;-87
2023/07/30 10:27:49;;;;;;;11.85;3.13;;;19.50;99.90;;;;;;4994346;28;20046;-86
2023/07/30 10:30:16;;;;;;;12.95;3.38;;;19.70;99.90;;;;;;5011865;28;20073;-87
2023/07/30 10:32:55;;;;;;;11.02;3.00;;;19.80;99.90;;;;;;4994348;28;20037;-86
2023/07/30 10:35:43;;;;;;;10.50;2.60;;;19.80;99.90;;;;;;4983162;28;20034;-84
2023/07/30 10:38:16;;;;;;;10.02;2.63;;;19.80;99.90;;;;;;4982395;28;20044;-86
2023/07/30 10:40:42;;;;;;;9.85;2.53;;;19.70;99.90;;;;;;4980314;28;20501;-86
2023/07/30 10:43:17;;;;;;;9.23;2.42;;;19.50;99.90;;;;;;4980090;28;20048;-85
2023/07/30 10:45:50;;;;;;;9.57;2.35;;;19.40;99.90;;;;;;4996313;28;20502;-85
2023/07/30 10:48:17;;;;;;;10.10;2.28;;;19.30;99.90;;;;;;4995524;28;20034;-86
2023/07/30 10:50:42;;;;;;;7.78;2.10;;;19.10;99.90;;;;;;4995395;28;20084;-86
2023/07/30 10:53:08;;;;;;;7.45;2.00;;;19.10;99.90;;;;;;4995513;28;20085;-86
2023/07/30 10:55:34;;;;;;;8.90;2.25;;;19.10;99.90;;;;;;4994914;28;20038;-86
2023/07/30 10:58:01;;;;;;;9.68;2.53;;;19.00;99.90;;;;;;4978731;28;20049;-86
2023/07/30 11:00:27;;;;;;;11.07;2.50;;;18.80;99.90;;;;;;4995111;28;20072;-86
2023/07/30 11:02:54;;;;;;;11.25;2.85;;;18.80;99.90;;;;;;4978025;28;20030;-87
2023/07/30 11:05:19;;;;;;;11.50;3.30;;;18.70;99.90;;;;;;4984214;28;20414;-86
2023/07/30 11:07:52;;;;;;;11.73;2.97;;;18.70;99.90;;;;;;4985234;28;20491;-86
2023/07/30 11:10:18;;;;;;;;;;;18.80;99.90;;;;;;4974077;28;20053;-86
2023/07/30 11:12:43;;;;;;;12.77;3.10;;;19.00;99.90;;;;;;4978242;28;19917;-86
2023/07/30 11:15:10;;;;;;;12.20;2.90;;;19.40;99.90;;;;;;4994725;28;20034;-87
2023/07/30 11:17:35;;;;;;;9.20;2.42;;;19.60;99.90;;;;;;4994501;28;20057;-86
2023/07/30 11:20:02;;;;;;;11.45;3.03;;;19.80;99.90;;;;;;4994751;28;20139;-87
2023/07/30 11:22:32;;;;;;;11.77;2.80;;;20.00;99.90;;;;;;4973680;28;20038;-87
2023/07/30 11:24:58;;;;;;;11.93;2.38;;;20.10;99.90;;;;;;4985038;28;20037;-86
2023/07/30 11:27:24;;;;;;;11.02;2.63;;;20.20;99.90;;;;;;4967094;28;20526;-87
2023/07/30 11:29:56;;;;;;;9.02;2.42;;;20.20;99.90;;;;;;4983142;28;20046;-87
2023/07/30 11:32:25;;;;;;;;;;;20.10;99.90;;;;;;4985624;28;20034;-87
2023/07/30 11:34:53;;;;;;;12.27;2.55;;;20.00;99.90;;;;;;4984576;28;20032;-87
2023/07/30 11:37:19;;;;;;;11.63;2.72;;;20.00;99.90;;;;;;4968579;28;20041;-87
2023/07/30 11:39:45;;;;;;;10.85;2.22;;;20.00;99.90;;;;;;4993567;28;20050;-87
2023/07/30 11:42:10;;;;;;;8.90;2.85;;;20.00;99.90;;;;;;4973795;28;20041;-87
2023/07/30 11:44:38;;;;;;;9.85;2.25;;;20.00;99.90;;;;;;4982820;28;20503;-87
2023/07/30 11:47:04;;;;;;;10.80;2.28;;;20.00;99.90;;;;;;4966768;28;20468;-86
2023/07/30 11:49:30;;;;;;;9.30;2.40;;;20.10;99.90;;;;;;4983392;28;20046;-86
2023/07/30 11:52:11;;;;;;;10.90;2.42;;;20.10;99.90;;;;;;4968786;28;20491;-87
2023/07/30 11:54:37;;;;;;;12.50;2.47;;;20.00;99.90;;;;;;4983230;28;20045;-86
2023/07/30 11:57:03;;;;;;;10.00;2.20;;;20.00;99.90;;;;;;4983057;28;20034;-86
2023/07/30 11:59:31;;;;;;;9.50;2.35;;;20.30;99.90;;;;;;4968977;28;20121;-87
2023/07/30 12:01:57;;;;;;;10.02;2.47;;;20.40;99.90;;;;;;4970263;28;20058;-87
2023/07/30 12:04:24;;;;;;;9.68;2.28;;;20.70;99.90;;;;;;4977513;28;20498;-87
2023/07/30 12:06:53;;;;;;;9.40;2.80;;;20.90;99.90;;;;;;4977107;28;20518;-87
2023/07/30 12:09:25;;;;;;;9.57;2.35;;;21.20;99.90;;;;;;4978238;28;20414;-87
2023/07/30 12:12:01;;;;;;;11.75;2.38;;;21.20;99.90;;;;;;4977992;28;20081;-87
2023/07/30 12:14:50;;;;;;;11.23;2.40;;;21.30;99.90;;;;;;4994509;28;20044;-87
2023/07/30 12:17:15;;;;;;;13.57;2.65;;;21.40;96.60;;;;;;4968923;28;20049;-87
2023/07/30 12:19:41;;;;;;;11.45;2.30;;;21.50;99.90;;;;;;4978001;28;20084;-87
2023/07/30 12:22:07;;;;;;;9.63;2.25;;;21.40;95.50;;;;;;4977619;28;20042;-86
2023/07/30 12:24:33;;;;;;;10.05;1.83;;;21.30;99.50;;;;;;4977233;28;20510;-86
2023/07/30 12:26:59;;;;;;;9.95;2.25;;;21.10;96.70;;;;;;4977624;28;20048;-86
2023/07/30 12:29:25;;;;;;;9.13;2.00;;;21.00;95.00;;;;;;4977650;28;20038;-86
2023/07/30 12:31:53;;;;;;;11.57;2.42;;;20.90;96.20;;;;;;4977719;28;20045;-86
2023/07/30 12:34:19;;;;;;;10.10;2.15;;;20.80;96.80;;;;;;4976925;28;20056;-86
2023/07/30 12:36:45;;;;;;;9.38;2.00;;;20.90;97.30;;;;;;4993479;28;20084;-86